createdAt,value
2023-01-29T00:01:29.248Z,101728.81
2023-01-29T00:03:57.001Z,101727.09
2023-01-29T00:06:24.831Z,101728.78
2023-01-29T00:08:52.646Z,101725.25
2023-01-29T00:11:20.709Z,101728.78
2023-01-29T00:13:48.435Z,101717.38
2023-01-29T00:16:16.136Z,101725.31
2023-01-29T00:18:45.315Z,101720.06
2023-01-29T00:21:14.205Z,101712.25
2023-01-29T00:23:42.391Z,101711.44
2023-01-29T00:26:11.152Z,101708.78
2023-01-29T00:28:39.332Z,101714.13
2023-01-29T00:31:11.468Z,101721.13
2023-01-29T00:33:39.310Z,101716.66
2023-01-29T00:36:11.416Z,101721.06
2023-01-29T00:38:40.437Z,101727.16
2023-01-29T00:41:25.773Z,101716.66
2023-01-29T00:44:10.925Z,101721.06
2023-01-29T00:46:38.888Z,101725.44
2023-01-29T00:49:07.909Z,101732.38
2023-01-29T00:51:38.780Z,101731.50
2023-01-29T00:54:07.391Z,101731.53
2023-01-29T00:56:36.944Z,101735.94
2023-01-29T00:59:05.020Z,101735.97
2023-01-29T01:01:50.450Z,101742.13
2023-01-29T01:04:18.272Z,101739.50
2023-01-29T01:06:47.403Z,101742.13
2023-01-29T01:09:32.487Z,101733.28
2023-01-29T01:12:00.173Z,101737.59
2023-01-29T01:14:27.876Z,101748.13
2023-01-29T01:16:55.556Z,101741.19
2023-01-29T01:19:23.279Z,101736.91
2023-01-29T01:21:52.324Z,101742.16
2023-01-29T01:24:20.310Z,101739.50
2023-01-29T01:26:48.101Z,101739.50
2023-01-29T01:29:15.791Z,101730.84
2023-01-29T01:31:43.638Z,101735.13
2023-01-29T01:34:11.441Z,101733.31
2023-01-29T01:36:39.181Z,101733.41
2023-01-29T01:39:08.268Z,101729.09
2023-01-29T01:41:36.003Z,101729.94
2023-01-29T01:44:06.349Z,101726.44
2023-01-29T01:46:36.240Z,101731.75
2023-01-29T01:49:06.931Z,101730.88
2023-01-29T01:51:38.510Z,101729.09
2023-01-29T01:54:12.738Z,101722.97
2023-01-29T01:56:44.849Z,101714.34
2023-01-29T01:59:17.547Z,101723.88
2023-01-29T02:01:50.194Z,101716.09
2023-01-29T02:04:39.738Z,101720.47
2023-01-29T02:07:28.472Z,101717.91
2023-01-29T02:10:02.958Z,101713.53
2023-01-29T02:12:31.720Z,101713.53
2023-01-29T02:15:00.819Z,101706.53
2023-01-29T02:17:28.768Z,101706.53
2023-01-29T02:20:08.799Z,101706.56
2023-01-29T02:23:09.676Z,101693.50
2023-01-29T02:25:58.254Z,101698.72
2023-01-29T02:28:36.316Z,101699.59
2023-01-29T02:31:12.652Z,101686.50
2023-01-29T02:33:56.678Z,101685.66
2023-01-29T02:36:33.236Z,101679.53
2023-01-29T02:39:08.927Z,101682.06
2023-01-29T02:41:43.900Z,101679.47
2023-01-29T02:44:23.142Z,101683.84
2023-01-29T02:46:57.884Z,101672.53
2023-01-29T02:49:32.872Z,101680.41
2023-01-29T02:52:07.506Z,101679.47
2023-01-29T02:54:43.750Z,101677.69
2023-01-29T02:57:17.566Z,101677.75
2023-01-29T02:59:52.875Z,101677.75
2023-01-29T03:02:27.562Z,101678.59
2023-01-29T03:05:01.186Z,101676.09
2023-01-29T03:07:42.882Z,101673.56
2023-01-29T03:10:17.850Z,101678.00
2023-01-29T03:12:52.660Z,101684.16
2023-01-29T03:15:27.342Z,101683.34
2023-01-29T03:17:59.634Z,101692.06
2023-01-29T03:20:32.923Z,101689.59
2023-01-29T03:23:07.581Z,101694.03
2023-01-29T03:25:54.766Z,101700.19
2023-01-29T03:28:40.998Z,101709.84
2023-01-29T03:31:30.966Z,101706.31
2023-01-29T03:34:04.013Z,101704.59
2023-01-29T03:36:38.266Z,101703.69
2023-01-29T03:39:06.767Z,101712.38
2023-01-29T03:41:38.916Z,101704.50
2023-01-29T03:44:15.879Z,101700.97
2023-01-29T03:46:53.647Z,101696.66
2023-01-29T03:49:30.989Z,101699.25
2023-01-29T03:52:04.401Z,101708.91
2023-01-29T03:54:43.494Z,101711.50
2023-01-29T03:57:17.640Z,101719.41
2023-01-29T03:59:53.175Z,101722.00
2023-01-29T04:02:27.967Z,101722.91
2023-01-29T04:04:58.417Z,101736.88
2023-01-29T04:07:27.860Z,101739.50
2023-01-29T04:09:59.561Z,101735.94
2023-01-29T04:12:31.795Z,101726.31
2023-01-29T04:15:02.455Z,101722.75
2023-01-29T04:17:38.237Z,101715.75
2023-01-29T04:20:07.067Z,101721.03
2023-01-29T04:22:37.073Z,101703.56
2023-01-29T04:25:08.481Z,101703.56
2023-01-29T04:27:44.956Z,101699.19
2023-01-29T04:30:23.855Z,101707.00
2023-01-29T04:33:04.077Z,101714.88
2023-01-29T04:35:37.191Z,101719.19
2023-01-29T04:38:12.678Z,101714.78
2023-01-29T04:40:50.659Z,101712.16
2023-01-29T04:43:27.547Z,101700.81
2023-01-29T04:46:08.634Z,101694.75
2023-01-29T04:48:44.909Z,101684.28
2023-01-29T04:51:19.466Z,101672.97
2023-01-29T04:53:52.620Z,101669.53
2023-01-29T04:56:25.265Z,101673.94
2023-01-29T04:59:00.488Z,101684.41
2023-01-29T05:01:33.207Z,101681.75
2023-01-29T05:04:06.439Z,101659.06
2023-01-29T05:06:34.453Z,101659.03
2023-01-29T05:09:03.514Z,101658.09
2023-01-29T05:11:33.293Z,101678.19
2023-01-29T05:14:03.492Z,101676.44
2023-01-29T05:16:42.069Z,101685.22
2023-01-29T05:19:13.447Z,101686.06
2023-01-29T05:21:44.106Z,101693.91
2023-01-29T05:24:13.994Z,101699.13
2023-01-29T05:27:00.557Z,101694.69
2023-01-29T05:29:28.432Z,101706.09
2023-01-29T05:31:56.323Z,101717.50
2023-01-29T05:34:25.494Z,101714.91
2023-01-29T05:36:53.557Z,101711.50
2023-01-29T05:39:21.357Z,101710.63
2023-01-29T05:41:49.654Z,101701.91
2023-01-29T05:44:17.450Z,101700.19
2023-01-29T05:46:46.142Z,101699.38
2023-01-29T05:49:14.201Z,101701.97
2023-01-29T05:51:43.223Z,101693.19
2023-01-29T05:54:12.646Z,101701.91
2023-01-29T05:56:40.819Z,101694.88
2023-01-29T05:59:08.599Z,101685.31
2023-01-29T06:01:36.350Z,101682.72
2023-01-29T06:04:04.097Z,101690.56
2023-01-29T06:06:31.877Z,101685.34
2023-01-29T06:09:01.063Z,101688.78
2023-01-29T06:11:28.825Z,101693.13
2023-01-29T06:13:56.592Z,101702.75
2023-01-29T06:16:24.427Z,101706.25
2023-01-29T06:18:52.216Z,101711.47
2023-01-29T06:21:20.259Z,101700.97
2023-01-29T06:23:48.072Z,101698.44
2023-01-29T06:26:17.269Z,101700.19
2023-01-29T06:28:45.862Z,101700.22
2023-01-29T06:31:35.301Z,101693.28
2023-01-29T06:34:01.505Z,101691.53
2023-01-29T06:36:29.275Z,101689.84
2023-01-29T06:38:57.008Z,101687.22
2023-01-29T06:41:26.299Z,101691.50
2023-01-29T06:43:54.131Z,101690.59
2023-01-29T06:46:22.127Z,101687.13
2023-01-29T06:48:49.924Z,101686.19
2023-01-29T06:51:17.753Z,101683.53
2023-01-29T06:53:46.639Z,101689.66
2023-01-29T06:56:14.632Z,101694.06
2023-01-29T06:58:44.066Z,101697.56
2023-01-29T07:01:25.357Z,101698.41
2023-01-29T07:04:00.704Z,101702.75
2023-01-29T07:06:29.715Z,101704.53
2023-01-29T07:08:57.717Z,101704.59
2023-01-29T07:11:25.537Z,101699.25
2023-01-29T07:13:54.655Z,101703.59
2023-01-29T07:16:23.489Z,101694.84
2023-01-29T07:18:51.370Z,101697.47
2023-01-29T07:21:19.145Z,101694.03
2023-01-29T07:23:47.474Z,101699.34
2023-01-29T07:26:15.201Z,101701.06
2023-01-29T07:28:42.965Z,101697.53
2023-01-29T07:31:14.789Z,101696.63
2023-01-29T07:33:44.772Z,101702.69
2023-01-29T07:36:13.551Z,101700.84
2023-01-29T07:38:41.544Z,101702.59
2023-01-29T07:41:10.903Z,101706.09
2023-01-29T07:43:38.610Z,101714.78
2023-01-29T07:46:06.713Z,101723.56
2023-01-29T07:48:35.889Z,101727.03
2023-01-29T07:51:03.618Z,101724.31
2023-01-29T07:53:31.491Z,101726.00
2023-01-29T07:55:59.473Z,101730.38
2023-01-29T07:58:27.369Z,101739.94
2023-01-29T08:00:55.170Z,101729.56
2023-01-29T08:03:22.866Z,101729.63
2023-01-29T08:05:52.092Z,101727.78
2023-01-29T08:08:20.388Z,101734.72
2023-01-29T08:10:48.531Z,101732.88
2023-01-29T08:13:16.473Z,101731.97
2023-01-29T08:15:45.056Z,101738.97
2023-01-29T08:18:12.894Z,101743.19
2023-01-29T08:20:40.908Z,101744.88
2023-01-29T08:23:16.917Z,101750.81
2023-01-29T08:25:45.396Z,101748.00
2023-01-29T08:28:13.257Z,101738.31
2023-01-29T08:30:41.196Z,101733.00
2023-01-29T08:33:09.017Z,101734.63
2023-01-29T08:35:36.985Z,101737.22
2023-01-29T08:38:06.011Z,101742.59
2023-01-29T08:40:36.553Z,101744.19
2023-01-29T08:43:07.122Z,101753.69
2023-01-29T08:45:38.025Z,101758.94
2023-01-29T08:48:06.855Z,101765.00
2023-01-29T08:50:35.376Z,101763.25
2023-01-29T08:53:05.358Z,101767.56
2023-01-29T08:55:33.091Z,101752.72
2023-01-29T08:58:02.258Z,101741.41
2023-01-29T09:00:30.024Z,101711.72
2023-01-29T09:02:59.506Z,101701.13
2023-01-29T09:05:27.203Z,101683.09
2023-01-29T09:07:55.042Z,101674.31
2023-01-29T09:10:22.747Z,101684.00
2023-01-29T09:12:50.457Z,101694.56
2023-01-29T09:15:19.756Z,101685.19
2023-01-29T09:17:49.426Z,101687.47
2023-01-29T09:20:18.074Z,101693.78
2023-01-29T09:22:46.113Z,101696.19
2023-01-29T09:25:14.192Z,101699.19
2023-01-29T09:27:42.153Z,101712.25
2023-01-29T09:30:11.198Z,101713.19
2023-01-29T09:32:55.708Z,101716.69
2023-01-29T09:35:24.183Z,101719.16
2023-01-29T09:37:52.549Z,101723.25
2023-01-29T09:40:27.741Z,101724.44
2023-01-29T09:43:02.566Z,101721.03
2023-01-29T09:45:31.463Z,101728.97
2023-01-29T09:48:03.358Z,101735.28
2023-01-29T09:50:35.943Z,101739.25
2023-01-29T09:53:13.556Z,101741.97
2023-01-29T09:55:47.377Z,101739.09
2023-01-29T09:58:21.926Z,101747.22
2023-01-29T10:00:58.267Z,101760.28
2023-01-29T10:03:42.987Z,101765.59
2023-01-29T10:06:24.709Z,101765.06
2023-01-29T10:09:37.719Z,101769.53
2023-01-29T10:12:21.832Z,101768.59
2023-01-29T10:14:58.161Z,101764.44
2023-01-29T10:17:42.459Z,101751.47
2023-01-29T10:20:40.466Z,101738.22
2023-01-29T10:23:19.696Z,101744.50
2023-01-29T10:25:49.708Z,101747.13
2023-01-29T10:28:19.980Z,101752.38
2023-01-29T10:30:50.778Z,101741.72
2023-01-29T10:33:24.407Z,101745.34
2023-01-29T10:35:59.086Z,101733.19
2023-01-29T10:38:36.294Z,101726.13
2023-01-29T10:41:19.253Z,101715.63
2023-01-29T10:43:59.078Z,101719.00
2023-01-29T10:46:43.724Z,101714.72
2023-01-29T10:49:27.187Z,101714.53
2023-01-29T10:52:12.193Z,101711.22
2023-01-29T10:54:55.188Z,101714.00
2023-01-29T10:57:36.568Z,101706.22
2023-01-29T11:00:13.111Z,101703.50
2023-01-29T11:02:45.031Z,101690.38
2023-01-29T11:05:21.618Z,101683.06
2023-01-29T11:08:01.954Z,101682.16
2023-01-29T11:10:33.256Z,101677.22
2023-01-29T11:13:00.987Z,101674.31
2023-01-29T11:15:33.312Z,101675.03
2023-01-29T11:18:13.592Z,101662.78
2023-01-29T11:20:43.317Z,101652.25
2023-01-29T11:23:26.670Z,101648.44
2023-01-29T11:25:55.758Z,101650.25
2023-01-29T11:28:41.222Z,101651.84
2023-01-29T11:31:27.223Z,101642.00
2023-01-29T11:34:04.997Z,101637.44
2023-01-29T11:36:38.203Z,101632.00
2023-01-29T11:39:18.502Z,101628.31
2023-01-29T11:41:49.607Z,101613.28
2023-01-29T11:44:21.961Z,101617.69
2023-01-29T11:46:50.925Z,101609.63
2023-01-29T11:49:33.157Z,101595.69
2023-01-29T11:52:03.321Z,101591.38
2023-01-29T11:54:36.887Z,101587.81
2023-01-29T11:57:06.206Z,101575.28
2023-01-29T11:59:42.837Z,101579.88
2023-01-29T12:02:28.196Z,101577.84
2023-01-29T12:04:58.176Z,101584.59
2023-01-29T12:07:26.433Z,101573.56
2023-01-29T12:09:57.367Z,101574.34
2023-01-29T12:12:33.539Z,101566.25
2023-01-29T12:15:20.739Z,101567.63
2023-01-29T12:18:07.292Z,101554.34
2023-01-29T12:20:40.304Z,101555.72
2023-01-29T12:23:20.951Z,101549.44
2023-01-29T12:25:59.411Z,101540.31
2023-01-29T12:28:45.848Z,101542.56
2023-01-29T12:31:27.561Z,101539.31
2023-01-29T12:34:03.394Z,101535.47
2023-01-29T12:36:39.492Z,101533.41
2023-01-29T12:39:07.440Z,101533.25
2023-01-29T12:41:43.328Z,101534.50
2023-01-29T12:44:17.203Z,101527.72
2023-01-29T12:46:50.632Z,101523.16
2023-01-29T12:49:24.399Z,101518.47
2023-01-29T12:51:59.129Z,101516.31
2023-01-29T12:54:36.172Z,101513.16
2023-01-29T12:57:11.558Z,101501.31
2023-01-29T12:59:44.185Z,101497.88
2023-01-29T13:02:24.902Z,101495.97
2023-01-29T13:05:00.469Z,101496.72
2023-01-29T13:07:33.114Z,101495.53
2023-01-29T13:10:08.524Z,101501.81
2023-01-29T13:12:40.939Z,101490.84
2023-01-29T13:15:21.958Z,101483.31
2023-01-29T13:17:54.339Z,101478.63
2023-01-29T13:20:29.921Z,101474.81
2023-01-29T13:23:01.640Z,101474.50
2023-01-29T13:25:29.416Z,101472.03
2023-01-29T13:27:59.056Z,101468.91
2023-01-29T13:30:29.202Z,101459.53
2023-01-29T13:33:09.356Z,101464.78
2023-01-29T13:35:40.264Z,101461.44
2023-01-29T13:38:24.913Z,101465.00
2023-01-29T13:40:53.726Z,101467.78
2023-01-29T13:43:24.532Z,101472.16
2023-01-29T13:45:54.233Z,101476.13
2023-01-29T13:48:27.454Z,101461.31
2023-01-29T13:50:57.194Z,101464.50
2023-01-29T13:53:27.711Z,101460.75
2023-01-29T13:55:55.754Z,101461.16
2023-01-29T13:58:56.146Z,101450.53
2023-01-29T14:02:08.727Z,101439.47
2023-01-29T14:04:36.531Z,101425.25
2023-01-29T14:07:40.937Z,101437.81
2023-01-29T14:10:16.387Z,101432.28
2023-01-29T14:12:45.815Z,101428.66
2023-01-29T14:15:30.401Z,101421.22
2023-01-29T14:18:14.564Z,101426.69
2023-01-29T14:20:57.033Z,101418.31
2023-01-29T14:23:36.833Z,101416.50
2023-01-29T14:26:07.554Z,101421.97
2023-01-29T14:28:36.294Z,101422.81
2023-01-29T14:31:07.634Z,101425.97
2023-01-29T14:33:38.341Z,101430.81
2023-01-29T14:36:08.271Z,101428.75
2023-01-29T14:38:36.399Z,101425.13
2023-01-29T14:41:08.766Z,101427.94
2023-01-29T14:43:36.654Z,101427.25
2023-01-29T14:46:41.730Z,101420.47
2023-01-29T14:49:11.442Z,101412.00
2023-01-29T14:51:44.353Z,101411.41
2023-01-29T14:54:23.777Z,101415.69
2023-01-29T14:56:59.457Z,101419.38
2023-01-29T14:59:33.933Z,101423.69
2023-01-29T15:02:06.339Z,101415.25
2023-01-29T15:04:43.313Z,101416.25
2023-01-29T15:07:23.133Z,101418.06
2023-01-29T15:10:01.342Z,101414.81
2023-01-29T15:12:49.946Z,101406.03
2023-01-29T15:15:22.669Z,101414.75
2023-01-29T15:17:57.135Z,101414.91
2023-01-29T15:20:33.158Z,101414.06
2023-01-29T15:23:03.380Z,101406.16
2023-01-29T15:25:36.957Z,101410.56
2023-01-29T15:28:08.889Z,101409.75
2023-01-29T15:30:37.859Z,101418.47
2023-01-29T15:33:10.728Z,101416.88
2023-01-29T15:35:42.131Z,101413.59
2023-01-29T15:38:17.867Z,101419.88
2023-01-29T15:40:54.050Z,101423.50
2023-01-29T15:43:24.108Z,101428.81
2023-01-29T15:45:53.562Z,101419.31
2023-01-29T15:48:34.257Z,101415.03
2023-01-29T15:51:07.488Z,101408.09
2023-01-29T15:53:39.336Z,101399.38
2023-01-29T15:56:11.638Z,101392.50
2023-01-29T15:58:41.780Z,101383.72
2023-01-29T16:01:12.265Z,101383.84
2023-01-29T16:03:53.304Z,101383.03
2023-01-29T16:06:24.084Z,101379.69
2023-01-29T16:08:54.944Z,101378.97
2023-01-29T16:11:23.647Z,101373.78
2023-01-29T16:13:52.860Z,101368.59
2023-01-29T16:16:24.892Z,101361.66
2023-01-29T16:19:00.500Z,101361.00
2023-01-29T16:21:34.255Z,101353.31
2023-01-29T16:24:03.996Z,101347.34
2023-01-29T16:26:35.295Z,101345.72
2023-01-29T16:29:06.790Z,101344.91
2023-01-29T16:31:36.563Z,101344.09
2023-01-29T16:34:08.659Z,101342.44
2023-01-29T16:36:38.199Z,101329.41
2023-01-29T16:39:15.760Z,101325.09
2023-01-29T16:41:44.418Z,101334.78
2023-01-29T16:44:33.919Z,101334.03
2023-01-29T16:47:12.921Z,101332.34
2023-01-29T16:49:47.427Z,101333.34
2023-01-29T16:52:20.969Z,101340.41
2023-01-29T16:54:49.074Z,101344.03
2023-01-29T16:57:21.489Z,101341.38
2023-01-29T16:59:51.293Z,101350.22
2023-01-29T17:02:25.284Z,101342.41
2023-01-29T17:04:54.901Z,101350.28
2023-01-29T17:07:24.556Z,101353.81
2023-01-29T17:09:55.817Z,101349.53
2023-01-29T17:12:27.054Z,101352.19
2023-01-29T17:14:57.705Z,101351.41
2023-01-29T17:17:31.859Z,101341.94
2023-01-29T17:20:03.723Z,101348.22
2023-01-29T17:22:33.499Z,101348.41
2023-01-29T17:25:01.587Z,101349.53
2023-01-29T17:27:33.028Z,101362.19
2023-01-29T17:30:01.331Z,101366.91
2023-01-29T17:32:44.967Z,101371.47
2023-01-29T17:35:17.216Z,101388.16
2023-01-29T17:37:46.811Z,101388.22
2023-01-29T17:40:22.670Z,101385.66
2023-01-29T17:42:50.763Z,101393.63
2023-01-29T17:45:19.182Z,101385.78
2023-01-29T17:47:47.560Z,101387.56
2023-01-29T17:50:22.712Z,101392.81
2023-01-29T17:52:53.320Z,101405.91
2023-01-29T17:55:21.720Z,101403.28
2023-01-29T17:57:49.946Z,101407.78
2023-01-29T18:00:21.432Z,101417.44
2023-01-29T18:02:49.906Z,101408.75
2023-01-29T18:05:19.576Z,101413.19
2023-01-29T18:07:51.682Z,101409.75
2023-01-29T18:10:23.032Z,101407.16
2023-01-29T18:12:50.722Z,101402.97
2023-01-29T18:15:19.141Z,101404.63
2023-01-29T18:17:48.446Z,101407.25
2023-01-29T18:20:20.601Z,101398.47
2023-01-29T18:22:48.816Z,101398.44
2023-01-29T18:25:17.366Z,101391.41
2023-01-29T18:27:46.796Z,101394.00
2023-01-29T18:30:15.651Z,101390.47
2023-01-29T18:32:43.560Z,101386.06
2023-01-29T18:35:11.480Z,101374.66
2023-01-29T18:37:39.287Z,101380.81
2023-01-29T18:40:08.290Z,101387.88
2023-01-29T18:42:36.028Z,101387.00
2023-01-29T18:45:06.043Z,101385.34
2023-01-29T18:47:34.065Z,101376.69
2023-01-29T18:50:01.824Z,101381.91
2023-01-29T18:52:29.760Z,101384.56
2023-01-29T18:54:57.458Z,101382.81
2023-01-29T18:58:26.771Z,101379.41
2023-01-29T19:00:15.045Z,101375.94
2023-01-29T19:02:43.724Z,101376.00
2023-01-29T19:05:11.489Z,101381.16
2023-01-29T19:07:39.195Z,101383.72
2023-01-29T19:10:12.447Z,101383.69
2023-01-29T19:12:42.229Z,101386.22
2023-01-29T19:15:11.375Z,101385.31
2023-01-29T19:17:40.533Z,101385.25
2023-01-29T19:20:09.705Z,101387.81
2023-01-29T19:22:37.529Z,101381.66
2023-01-29T19:25:06.188Z,101388.44
2023-01-29T19:27:34.157Z,101377.19
2023-01-29T19:30:02.158Z,101376.22
2023-01-29T19:32:30.100Z,101370.88
2023-01-29T19:34:59.525Z,101370.88
2023-01-29T19:37:27.372Z,101361.34
2023-01-29T19:39:55.144Z,101357.00
2023-01-29T19:42:22.913Z,101356.91
2023-01-29T19:44:51.197Z,101359.53
2023-01-29T19:47:19.006Z,101362.19
2023-01-29T19:49:46.821Z,101367.44
2023-01-29T19:52:49.687Z,101366.50
2023-01-29T19:55:19.067Z,101359.56
2023-01-29T19:57:47.146Z,101352.53
2023-01-29T20:00:17.531Z,101356.97
2023-01-29T20:02:45.593Z,101355.19
2023-01-29T20:05:13.624Z,101352.56
2023-01-29T20:07:42.854Z,101348.25
2023-01-29T20:10:17.307Z,101356.97
2023-01-29T20:12:45.669Z,101356.09
2023-01-29T20:15:14.051Z,101356.09
2023-01-29T20:17:42.335Z,101346.50
2023-01-29T20:20:11.528Z,101352.56
2023-01-29T20:22:39.361Z,101346.50
2023-01-29T20:25:09.307Z,101345.59
2023-01-29T20:27:37.077Z,101342.03
2023-01-29T20:30:05.648Z,101340.41
2023-01-29T20:32:33.365Z,101350.13
2023-01-29T20:35:01.101Z,101349.25
2023-01-29T20:37:28.901Z,101351.03
2023-01-29T20:39:56.690Z,101350.13
2023-01-29T20:42:25.935Z,101352.84
2023-01-29T20:44:53.770Z,101356.38
2023-01-29T20:47:21.603Z,101363.28
2023-01-29T20:49:49.476Z,101372.03
2023-01-29T20:52:17.234Z,101363.31
2023-01-29T20:54:45.044Z,101376.38
2023-01-29T20:57:12.861Z,101365.00
2023-01-29T20:59:42.061Z,101368.44
2023-01-29T21:02:11.906Z,101361.50
2023-01-29T21:04:39.896Z,101366.75
2023-01-29T21:07:07.753Z,101362.38
2023-01-29T21:09:35.584Z,101348.44
2023-01-29T21:12:05.374Z,101353.50
2023-01-29T21:14:33.496Z,101351.84
2023-01-29T21:17:03.265Z,101353.50
2023-01-29T21:19:31.322Z,101343.91
2023-01-29T21:21:59.196Z,101347.38
2023-01-29T21:24:27.539Z,101332.59
2023-01-29T21:26:55.321Z,101325.63
2023-01-29T21:29:23.183Z,101321.22
2023-01-29T21:31:51.081Z,101316.00
2023-01-29T21:34:20.300Z,101309.78
2023-01-29T21:36:48.199Z,101304.53
2023-01-29T21:39:20.804Z,101296.66
2023-01-29T21:42:07.638Z,101296.59
2023-01-29T21:44:36.060Z,101301.81
2023-01-29T21:47:12.346Z,101291.38
2023-01-29T21:49:42.915Z,101297.53
2023-01-29T21:52:12.315Z,101285.31
2023-01-29T21:54:40.884Z,101274.03
2023-01-29T21:57:12.945Z,101267.91
2023-01-29T21:59:40.689Z,101263.56
2023-01-29T22:02:13.324Z,101258.38
2023-01-29T22:04:43.287Z,101265.25
2023-01-29T22:07:11.344Z,101258.19
2023-01-29T22:09:39.561Z,101253.78
2023-01-29T22:12:08.810Z,101253.72
2023-01-29T22:14:36.612Z,101253.56
2023-01-29T22:17:04.327Z,101260.47
2023-01-29T22:19:32.122Z,101249.06
2023-01-29T22:22:01.474Z,101242.88
2023-01-29T22:24:29.241Z,101236.63
2023-01-29T22:26:56.991Z,101232.25
2023-01-29T22:29:24.717Z,101221.66
2023-01-29T22:31:52.454Z,101226.09
2023-01-29T22:34:20.136Z,101227.00
2023-01-29T22:36:47.879Z,101226.09
2023-01-29T22:39:16.989Z,101232.16
2023-01-29T22:41:44.700Z,101210.31
2023-01-29T22:44:12.673Z,101210.25
2023-01-29T22:46:40.444Z,101208.53
2023-01-29T22:49:08.264Z,101205.09
2023-01-29T22:51:36.151Z,101204.16
2023-01-29T22:54:04.374Z,101209.34
2023-01-29T22:56:33.599Z,101205.84
2023-01-29T22:59:02.097Z,101195.28
2023-01-29T23:01:32.018Z,101187.38
2023-01-29T23:03:59.813Z,101176.03
2023-01-29T23:06:27.507Z,101167.34
2023-01-29T23:08:55.431Z,101171.63
2023-01-29T23:11:23.802Z,101179.66
2023-01-29T23:13:54.597Z,101178.84
2023-01-29T23:16:26.774Z,101176.22
2023-01-29T23:18:56.588Z,101168.41
2023-01-29T23:21:26.000Z,101171.03
2023-01-29T23:23:55.318Z,101164.09
2023-01-29T23:26:40.601Z,101165.94
2023-01-29T23:29:10.247Z,101163.25
2023-01-29T23:31:38.066Z,101165.78
2023-01-29T23:34:06.343Z,101140.41
2023-01-29T23:36:34.129Z,101139.53
2023-01-29T23:39:01.918Z,101133.44
2023-01-29T23:41:29.737Z,101133.38
2023-01-29T23:43:57.588Z,101128.16
2023-01-29T23:46:26.738Z,101127.28
2023-01-29T23:48:54.562Z,101137.78
2023-01-29T23:51:22.600Z,101145.59
2023-01-29T23:53:50.343Z,101148.25
2023-01-29T23:56:18.111Z,101135.25
2023-01-29T23:58:46.093Z,101144.94
